createdAt,value
2023-01-08T00:01:06.793Z,2.60
2023-01-08T00:03:33.965Z,2.60
2023-01-08T00:06:04.542Z,2.60
2023-01-08T00:08:31.623Z,2.60
2023-01-08T00:10:58.609Z,2.50
2023-01-08T00:13:25.710Z,2.50
2023-01-08T00:15:52.837Z,2.40
2023-01-08T00:18:19.817Z,2.40
2023-01-08T00:20:46.800Z,2.40
2023-01-08T00:23:14.143Z,2.50
2023-01-08T00:25:41.220Z,2.50
2023-01-08T00:28:08.201Z,2.50
2023-01-08T00:30:35.967Z,2.50
2023-01-08T00:33:03.229Z,2.50
2023-01-08T00:35:30.298Z,2.40
2023-01-08T00:37:57.336Z,2.30
2023-01-08T00:40:24.318Z,2.30
2023-01-08T00:42:51.305Z,2.40
2023-01-08T00:45:18.283Z,2.40
2023-01-08T00:47:45.259Z,2.40
2023-01-08T00:50:12.592Z,2.50
2023-01-08T00:52:39.558Z,2.50
2023-01-08T00:55:06.807Z,2.50
2023-01-08T00:57:34.634Z,2.60
2023-01-08T01:00:01.782Z,2.70
2023-01-08T01:02:29.049Z,2.70
2023-01-08T01:04:56.319Z,2.60
2023-01-08T01:07:23.436Z,2.70
2023-01-08T01:09:50.455Z,2.60
2023-01-08T01:12:17.443Z,2.60
2023-01-08T01:14:44.429Z,2.60
2023-01-08T01:17:12.100Z,2.50
2023-01-08T01:19:39.261Z,2.50
2023-01-08T01:22:06.237Z,2.50
2023-01-08T01:24:33.341Z,2.50
2023-01-08T01:27:00.562Z,2.40
2023-01-08T01:29:27.605Z,2.40
2023-01-08T01:31:57.992Z,2.40
2023-01-08T01:34:24.964Z,2.40
2023-01-08T01:36:51.965Z,2.30
2023-01-08T01:39:19.865Z,2.30
2023-01-08T01:41:47.374Z,2.30
2023-01-08T01:44:33.212Z,2.30
2023-01-08T01:47:05.123Z,2.20
2023-01-08T01:49:32.121Z,2.20
2023-01-08T01:52:02.286Z,2.20
2023-01-08T01:54:29.723Z,2.20
2023-01-08T01:56:56.710Z,2.20
2023-01-08T01:59:23.688Z,2.10
2023-01-08T02:01:50.727Z,2.20
2023-01-08T02:04:18.120Z,2.10
2023-01-08T02:06:45.097Z,2.00
2023-01-08T02:09:17.854Z,2.00
2023-01-08T02:11:46.904Z,2.10
2023-01-08T02:14:17.112Z,2.00
2023-01-08T02:16:52.116Z,2.00
2023-01-08T02:19:19.120Z,2.10
2023-01-08T02:21:59.292Z,2.00
2023-01-08T02:24:26.249Z,1.90
2023-01-08T02:26:53.222Z,1.90
2023-01-08T02:29:20.669Z,1.80
2023-01-08T02:31:47.696Z,1.80
2023-01-08T02:34:14.762Z,1.80
2023-01-08T02:36:42.263Z,1.80
2023-01-08T02:39:21.589Z,1.80
2023-01-08T02:42:07.460Z,1.80
2023-01-08T02:44:34.529Z,1.80
2023-01-08T02:47:01.609Z,1.80
2023-01-08T02:49:29.208Z,1.80
2023-01-08T02:51:56.198Z,1.80
2023-01-08T02:54:24.135Z,1.80
2023-01-08T02:56:53.466Z,1.80
2023-01-08T02:59:20.442Z,1.80
2023-01-08T03:01:47.724Z,1.80
2023-01-08T03:04:16.255Z,1.80
2023-01-08T03:06:43.647Z,1.80
2023-01-08T03:09:10.697Z,1.70
2023-01-08T03:11:57.869Z,1.70
2023-01-08T03:14:39.469Z,1.70
2023-01-08T03:17:23.946Z,1.70
2023-01-08T03:19:54.555Z,1.70
2023-01-08T03:22:21.521Z,1.70
2023-01-08T03:24:49.457Z,1.70
2023-01-08T03:27:17.609Z,1.70
2023-01-08T03:29:44.957Z,1.60
2023-01-08T03:32:13.074Z,1.60
2023-01-08T03:34:40.488Z,1.70
2023-01-08T03:37:07.831Z,1.70
2023-01-08T03:39:40.652Z,1.70
2023-01-08T03:42:08.054Z,1.70
2023-01-08T03:44:35.020Z,1.70
2023-01-08T03:47:01.987Z,1.60
2023-01-08T03:49:29.044Z,1.70
2023-01-08T03:51:56.107Z,1.70
2023-01-08T03:54:23.899Z,1.70
2023-01-08T03:56:50.998Z,1.70
2023-01-08T03:59:18.016Z,1.70
2023-01-08T04:01:45.409Z,1.70
2023-01-08T04:04:12.595Z,1.70
2023-01-08T04:06:39.665Z,1.70
2023-01-08T04:09:06.712Z,1.60
2023-01-08T04:11:33.724Z,1.60
2023-01-08T04:14:00.772Z,1.70
2023-01-08T04:16:27.763Z,1.70
2023-01-08T04:18:54.781Z,1.60
2023-01-08T04:21:21.821Z,1.60
2023-01-08T04:23:48.814Z,1.60
2023-01-08T04:26:15.824Z,1.60
2023-01-08T04:28:42.793Z,1.70
2023-01-08T04:31:10.072Z,1.60
2023-01-08T04:33:37.179Z,1.60
2023-01-08T04:36:04.602Z,1.60
2023-01-08T04:38:31.646Z,1.60
2023-01-08T04:40:59.129Z,1.60
2023-01-08T04:43:26.155Z,1.60
2023-01-08T04:45:53.312Z,1.60
2023-01-08T04:48:20.300Z,1.60
2023-01-08T04:50:47.282Z,1.60
2023-01-08T04:53:14.313Z,1.60
2023-01-08T04:55:41.333Z,1.70
2023-01-08T04:58:08.618Z,1.70
2023-01-08T05:00:35.655Z,1.70
2023-01-08T05:03:02.702Z,1.70
2023-01-08T05:05:29.739Z,1.70
2023-01-08T05:07:56.912Z,1.70
2023-01-08T05:10:23.892Z,1.80
2023-01-08T05:12:51.061Z,1.70
2023-01-08T05:15:18.037Z,1.70
2023-01-08T05:17:45.051Z,1.70
2023-01-08T05:20:12.249Z,1.70
2023-01-08T05:22:39.233Z,1.70
2023-01-08T05:25:06.424Z,1.70
2023-01-08T05:27:33.400Z,1.70
2023-01-08T05:30:00.384Z,1.70
2023-01-08T05:32:27.377Z,1.70
2023-01-08T05:34:54.359Z,1.70
2023-01-08T05:37:21.664Z,1.60
2023-01-08T05:39:48.680Z,1.60
2023-01-08T05:42:15.682Z,1.70
2023-01-08T05:44:42.688Z,1.60
2023-01-08T05:47:09.650Z,1.60
2023-01-08T05:49:36.636Z,1.60
2023-01-08T05:52:03.663Z,1.60
2023-01-08T05:54:30.631Z,1.60
2023-01-08T05:56:57.612Z,1.60
2023-01-08T05:59:24.603Z,1.60
2023-01-08T06:01:51.581Z,1.60
2023-01-08T06:04:18.676Z,1.50
2023-01-08T06:06:45.760Z,1.60
2023-01-08T06:09:12.722Z,1.50
2023-01-08T06:11:39.743Z,1.60
2023-01-08T06:14:06.732Z,1.60
2023-01-08T06:16:33.761Z,1.50
2023-01-08T06:19:00.758Z,1.50
2023-01-08T06:21:27.752Z,1.50
2023-01-08T06:23:54.731Z,1.50
2023-01-08T06:26:21.732Z,1.50
2023-01-08T06:28:48.826Z,1.50
2023-01-08T06:31:15.861Z,1.50
2023-01-08T06:33:42.870Z,1.50
2023-01-08T06:36:09.898Z,1.50
2023-01-08T06:38:36.973Z,1.40
2023-01-08T06:41:04.956Z,1.50
2023-01-08T06:43:32.716Z,1.50
2023-01-08T06:46:06.516Z,1.50
2023-01-08T06:48:33.526Z,1.50
2023-01-08T06:51:01.073Z,1.50
2023-01-08T06:53:28.158Z,1.50
2023-01-08T06:55:57.078Z,1.50
2023-01-08T06:58:27.338Z,1.50
2023-01-08T07:00:54.350Z,1.50
2023-01-08T07:03:21.346Z,1.50
2023-01-08T07:05:50.577Z,1.50
2023-01-08T07:08:17.658Z,1.50
2023-01-08T07:10:44.631Z,1.40
2023-01-08T07:13:12.759Z,1.40
2023-01-08T07:15:40.117Z,1.40
2023-01-08T07:18:07.714Z,1.50
2023-01-08T07:20:34.701Z,1.50
2023-01-08T07:23:05.168Z,1.50
2023-01-08T07:25:32.299Z,1.50
2023-01-08T07:27:59.409Z,1.60
2023-01-08T07:30:30.029Z,1.60
2023-01-08T07:33:00.998Z,1.60
2023-01-08T07:35:28.322Z,1.60
2023-01-08T07:37:55.620Z,1.70
2023-01-08T07:40:22.601Z,1.70
2023-01-08T07:42:56.893Z,1.70
2023-01-08T07:45:23.888Z,1.80
2023-01-08T07:47:50.929Z,1.80
2023-01-08T07:50:17.930Z,1.90
2023-01-08T07:52:44.915Z,1.90
2023-01-08T07:55:11.951Z,1.90
2023-01-08T07:57:38.941Z,1.90
2023-01-08T08:00:06.330Z,1.90
2023-01-08T08:02:33.888Z,2.00
2023-01-08T08:05:01.047Z,2.00
2023-01-08T08:07:30.455Z,2.00
2023-01-08T08:09:57.661Z,2.00
2023-01-08T08:12:25.001Z,2.10
2023-01-08T08:14:52.114Z,2.20
2023-01-08T08:17:19.079Z,2.20
2023-01-08T08:19:46.077Z,2.30
2023-01-08T08:22:13.088Z,2.30
2023-01-08T08:24:40.159Z,2.30
2023-01-08T08:27:07.122Z,2.30
2023-01-08T08:29:34.121Z,2.40
2023-01-08T08:32:01.190Z,2.40
2023-01-08T08:34:28.165Z,2.50
2023-01-08T08:36:55.130Z,2.60
2023-01-08T08:39:22.163Z,2.60
2023-01-08T08:41:49.143Z,2.70
2023-01-08T08:44:16.195Z,2.80
2023-01-08T08:46:43.259Z,2.90
2023-01-08T08:49:10.230Z,2.90
2023-01-08T08:51:37.203Z,2.90
2023-01-08T08:54:04.180Z,2.90
2023-01-08T08:56:31.229Z,2.90
2023-01-08T08:58:58.335Z,3.00
2023-01-08T09:01:25.651Z,3.00
2023-01-08T09:03:52.701Z,3.10
2023-01-08T09:06:19.694Z,3.10
2023-01-08T09:08:46.716Z,3.20
2023-01-08T09:11:14.587Z,3.20
2023-01-08T09:13:41.666Z,3.30
2023-01-08T09:16:08.712Z,3.30
2023-01-08T09:18:35.711Z,3.40
2023-01-08T09:21:07.017Z,3.50
2023-01-08T09:23:34.397Z,3.60
2023-01-08T09:26:02.012Z,3.70
2023-01-08T09:28:29.107Z,3.70
2023-01-08T09:30:56.167Z,3.80
2023-01-08T09:33:23.137Z,3.80
2023-01-08T09:35:50.107Z,3.90
2023-01-08T09:38:17.082Z,3.90
2023-01-08T09:40:46.218Z,4.00
2023-01-08T09:43:14.951Z,4.00
2023-01-08T09:45:41.953Z,4.20
2023-01-08T09:48:12.526Z,4.20
2023-01-08T09:50:39.550Z,4.40
2023-01-08T09:53:09.276Z,4.60
2023-01-08T09:55:36.272Z,4.70
2023-01-08T09:58:03.602Z,4.80
2023-01-08T10:00:31.598Z,5.00
2023-01-08T10:02:58.705Z,5.20
2023-01-08T10:05:26.238Z,5.40
2023-01-08T10:07:53.215Z,5.50
2023-01-08T10:10:21.275Z,5.60
2023-01-08T10:12:48.634Z,5.70
2023-01-08T10:15:16.300Z,5.70
2023-01-08T10:18:02.238Z,5.70
2023-01-08T10:20:29.218Z,5.70
2023-01-08T10:22:59.165Z,5.70
2023-01-08T10:25:27.185Z,5.80
2023-01-08T10:27:58.193Z,5.70
2023-01-08T10:30:31.379Z,5.70
2023-01-08T10:33:02.231Z,5.80
2023-01-08T10:35:33.812Z,5.90
2023-01-08T10:38:01.432Z,6.10
2023-01-08T10:40:42.150Z,6.20
2023-01-08T10:43:12.146Z,6.30
2023-01-08T10:45:40.629Z,6.60
2023-01-08T10:48:08.168Z,6.70
2023-01-08T10:50:35.193Z,6.80
2023-01-08T10:53:03.585Z,6.90
2023-01-08T10:55:31.624Z,7.00
2023-01-08T10:58:02.581Z,7.10
2023-01-08T11:00:33.441Z,7.20
2023-01-08T11:03:01.117Z,7.20
2023-01-08T11:05:38.069Z,7.20
2023-01-08T11:08:13.340Z,7.20
2023-01-08T11:10:40.397Z,7.20
2023-01-08T11:13:08.323Z,7.10
2023-01-08T11:15:38.948Z,7.10
2023-01-08T11:18:12.189Z,7.10
2023-01-08T11:20:39.314Z,7.10
2023-01-08T11:23:15.560Z,7.20
2023-01-08T11:25:43.168Z,7.20
2023-01-08T11:28:11.467Z,7.20
2023-01-08T11:30:38.464Z,7.20
2023-01-08T11:33:06.537Z,7.20
2023-01-08T11:35:36.273Z,7.30
2023-01-08T11:38:03.318Z,7.40
2023-01-08T11:40:49.379Z,7.50
2023-01-08T11:43:28.705Z,7.50
2023-01-08T11:46:10.906Z,7.50
2023-01-08T11:48:58.208Z,7.50
2023-01-08T11:51:28.406Z,7.60
2023-01-08T11:54:06.530Z,7.70
2023-01-08T11:56:49.174Z,7.70
2023-01-08T11:59:35.022Z,7.80
2023-01-08T12:02:15.402Z,7.80
2023-01-08T12:04:59.288Z,7.80
2023-01-08T12:07:39.446Z,7.80
2023-01-08T12:10:14.980Z,7.80
2023-01-08T12:12:51.238Z,7.80
2023-01-08T12:15:26.340Z,7.80
2023-01-08T12:18:18.011Z,7.90
2023-01-08T12:21:03.770Z,7.80
2023-01-08T12:23:39.943Z,7.80
2023-01-08T12:26:19.201Z,7.80
2023-01-08T12:28:55.348Z,7.70
2023-01-08T12:31:30.385Z,7.60
2023-01-08T12:34:00.228Z,7.60
2023-01-08T12:36:29.818Z,7.60
2023-01-08T12:39:04.595Z,7.60
2023-01-08T12:41:31.999Z,7.60
2023-01-08T12:44:02.978Z,7.70
2023-01-08T12:46:34.068Z,7.70
2023-01-08T12:49:01.051Z,7.70
2023-01-08T12:51:38.602Z,7.70
2023-01-08T12:54:08.681Z,7.70
2023-01-08T12:56:38.138Z,7.70
2023-01-08T12:59:05.243Z,7.70
2023-01-08T13:01:43.619Z,7.80
2023-01-08T13:04:10.860Z,7.90
2023-01-08T13:06:37.828Z,7.90
2023-01-08T13:09:04.845Z,7.80
2023-01-08T13:11:32.339Z,7.70
2023-01-08T13:14:00.321Z,7.70
2023-01-08T13:16:27.498Z,7.60
2023-01-08T13:18:58.583Z,7.50
2023-01-08T13:21:34.762Z,7.50
2023-01-08T13:24:02.789Z,7.50
2023-01-08T13:26:31.651Z,7.50
2023-01-08T13:29:09.150Z,7.40
2023-01-08T13:31:40.096Z,7.40
2023-01-08T13:34:27.555Z,7.50
2023-01-08T13:36:55.283Z,7.40
2023-01-08T13:39:23.478Z,7.40
2023-01-08T13:42:09.575Z,7.40
2023-01-08T13:44:41.231Z,7.50
2023-01-08T13:47:22.839Z,7.60
2023-01-08T13:49:51.320Z,7.60
2023-01-08T13:52:40.952Z,7.50
2023-01-08T13:55:18.102Z,7.40
2023-01-08T13:57:49.496Z,7.40
2023-01-08T14:00:42.914Z,7.40
2023-01-08T14:03:28.753Z,7.30
2023-01-08T14:06:10.966Z,7.30
2023-01-08T14:08:37.960Z,7.30
2023-01-08T14:11:05.147Z,7.30
2023-01-08T14:13:34.059Z,7.40
2023-01-08T14:16:02.385Z,7.40
2023-01-08T14:18:29.478Z,7.40
2023-01-08T14:20:56.573Z,7.40
2023-01-08T14:23:24.863Z,7.40
2023-01-08T14:25:51.971Z,7.40
2023-01-08T14:28:20.387Z,7.30
2023-01-08T14:30:51.191Z,7.30
2023-01-08T14:33:19.269Z,7.30
2023-01-08T14:35:46.332Z,7.30
2023-01-08T14:38:13.527Z,7.30
2023-01-08T14:40:42.106Z,7.30
2023-01-08T14:43:12.443Z,7.30
2023-01-08T14:45:39.913Z,7.20
2023-01-08T14:48:13.862Z,7.20
2023-01-08T14:50:41.673Z,7.20
2023-01-08T14:53:28.941Z,7.20
2023-01-08T14:55:56.557Z,7.20
2023-01-08T14:58:24.615Z,7.40
2023-01-08T15:00:52.893Z,7.50
2023-01-08T15:03:27.890Z,7.60
2023-01-08T15:05:55.918Z,7.60
2023-01-08T15:08:26.901Z,7.50
2023-01-08T15:11:26.411Z,7.50
2023-01-08T15:13:53.777Z,7.40
2023-01-08T15:16:30.172Z,7.40
2023-01-08T15:19:01.132Z,7.30
2023-01-08T15:21:28.347Z,7.40
2023-01-08T15:23:55.818Z,7.30
2023-01-08T15:26:23.007Z,7.30
2023-01-08T15:28:53.106Z,7.30
2023-01-08T15:31:24.033Z,7.20
2023-01-08T15:33:51.122Z,7.20
2023-01-08T15:36:18.080Z,7.20
2023-01-08T15:38:45.104Z,7.20
2023-01-08T15:41:13.023Z,7.10
2023-01-08T15:43:41.878Z,7.10
2023-01-08T15:46:10.505Z,7.10
2023-01-08T15:48:37.594Z,7.00
2023-01-08T15:51:07.284Z,7.00
2023-01-08T15:53:34.433Z,7.00
2023-01-08T15:56:01.422Z,7.00
2023-01-08T15:58:28.415Z,6.90
2023-01-08T16:00:55.426Z,6.90
2023-01-08T16:03:25.305Z,6.90
2023-01-08T16:05:52.280Z,6.90
2023-01-08T16:08:19.348Z,6.80
2023-01-08T16:10:46.308Z,6.80
2023-01-08T16:13:13.409Z,6.80
2023-01-08T16:15:40.680Z,6.80
2023-01-08T16:18:07.687Z,6.80
2023-01-08T16:20:34.956Z,6.70
2023-01-08T16:23:02.198Z,6.70
2023-01-08T16:25:29.192Z,6.70
2023-01-08T16:27:56.333Z,6.80
2023-01-08T16:30:23.727Z,6.80
2023-01-08T16:32:53.862Z,6.80
2023-01-08T16:35:21.205Z,6.80
2023-01-08T16:37:48.217Z,6.80
2023-01-08T16:40:15.204Z,6.90
2023-01-08T16:42:42.176Z,6.90
2023-01-08T16:45:09.475Z,6.80
2023-01-08T16:47:37.090Z,6.80
2023-01-08T16:50:04.222Z,6.80
2023-01-08T16:52:31.187Z,6.80
2023-01-08T16:54:58.179Z,6.80
2023-01-08T16:57:25.159Z,6.70
2023-01-08T16:59:52.128Z,6.70
2023-01-08T17:02:19.244Z,6.70
2023-01-08T17:04:46.219Z,6.60
2023-01-08T17:07:13.379Z,6.60
2023-01-08T17:09:40.470Z,6.60
2023-01-08T17:12:07.644Z,6.60
2023-01-08T17:14:36.487Z,6.50
2023-01-08T17:17:03.682Z,6.50
2023-01-08T17:19:30.694Z,6.40
2023-01-08T17:21:57.690Z,6.40
2023-01-08T17:24:24.935Z,6.40
2023-01-08T17:26:51.921Z,6.30
2023-01-08T17:29:18.922Z,6.30
2023-01-08T17:31:46.110Z,6.20
2023-01-08T17:34:13.227Z,6.20
2023-01-08T17:36:40.253Z,6.10
2023-01-08T17:39:07.338Z,6.10
2023-01-08T17:41:53.228Z,6.10
2023-01-08T17:44:20.223Z,6.10
2023-01-08T17:46:47.365Z,6.10
2023-01-08T17:49:14.669Z,6.00
2023-01-08T17:51:41.751Z,6.00
2023-01-08T17:54:09.971Z,6.00
2023-01-08T17:56:37.139Z,5.90
2023-01-08T17:59:04.272Z,5.90
2023-01-08T18:01:31.978Z,5.90
2023-01-08T18:03:59.158Z,5.90
2023-01-08T18:06:26.200Z,5.90
2023-01-08T18:08:53.183Z,5.90
2023-01-08T18:11:20.359Z,6.00
2023-01-08T18:13:47.333Z,6.00
2023-01-08T18:16:14.525Z,5.90
2023-01-08T18:18:41.613Z,5.90
2023-01-08T18:21:08.654Z,5.90
2023-01-08T18:23:35.634Z,5.90
2023-01-08T18:26:03.464Z,5.90
2023-01-08T18:28:30.433Z,5.90
2023-01-08T18:30:57.521Z,5.90
2023-01-08T18:33:24.499Z,5.90
2023-01-08T18:35:51.720Z,5.90
2023-01-08T18:38:19.724Z,6.00
2023-01-08T18:40:46.724Z,6.00
2023-01-08T18:43:13.695Z,5.90
2023-01-08T18:45:41.339Z,5.90
2023-01-08T18:48:09.592Z,5.90
2023-01-08T18:50:40.339Z,6.00
2023-01-08T18:53:08.065Z,6.00
2023-01-08T18:55:36.009Z,6.00
2023-01-08T18:58:04.699Z,6.00
2023-01-08T19:00:31.798Z,6.00
2023-01-08T19:02:58.889Z,6.10
2023-01-08T19:05:25.966Z,6.00
2023-01-08T19:07:53.071Z,6.00
2023-01-08T19:10:21.571Z,6.00
2023-01-08T19:12:49.136Z,6.00
2023-01-08T19:15:16.391Z,5.90
2023-01-08T19:17:43.378Z,5.90
2023-01-08T19:20:10.939Z,5.80
2023-01-08T19:22:37.923Z,5.80
2023-01-08T19:25:05.075Z,5.80
2023-01-08T19:27:33.510Z,5.80
2023-01-08T19:30:00.629Z,5.70
2023-01-08T19:32:27.610Z,5.70
2023-01-08T19:34:54.691Z,5.60
2023-01-08T19:37:21.683Z,5.60
2023-01-08T19:39:48.685Z,5.60
2023-01-08T19:42:34.582Z,5.60
2023-01-08T19:45:01.561Z,5.60
2023-01-08T19:47:28.568Z,5.50
2023-01-08T19:49:55.601Z,5.50
2023-01-08T19:52:22.927Z,5.50
2023-01-08T19:54:49.951Z,5.50
2023-01-08T19:57:16.967Z,5.50
2023-01-08T19:59:43.956Z,5.50
2023-01-08T20:02:11.604Z,5.50
2023-01-08T20:04:43.340Z,5.50
2023-01-08T20:07:11.065Z,5.40
2023-01-08T20:09:38.480Z,5.50
2023-01-08T20:12:05.691Z,5.40
2023-01-08T20:14:34.071Z,5.40
2023-01-08T20:17:01.521Z,5.40
2023-01-08T20:19:28.766Z,5.40
2023-01-08T20:21:55.749Z,5.40
2023-01-08T20:24:22.895Z,5.40
2023-01-08T20:26:50.047Z,5.30
2023-01-08T20:29:17.091Z,5.40
2023-01-08T20:31:44.295Z,5.40
2023-01-08T20:34:12.423Z,5.40
2023-01-08T20:36:39.707Z,5.40
2023-01-08T20:39:07.742Z,5.40
2023-01-08T20:41:34.790Z,5.40
2023-01-08T20:44:03.502Z,5.40
2023-01-08T20:46:30.625Z,5.40
2023-01-08T20:48:59.654Z,5.40
2023-01-08T20:51:26.653Z,5.30
2023-01-08T20:53:53.696Z,5.30
2023-01-08T20:56:20.719Z,5.30
2023-01-08T20:58:47.957Z,5.30
2023-01-08T21:01:16.341Z,5.30
2023-01-08T21:03:43.610Z,5.30
2023-01-08T21:06:12.035Z,5.30
2023-01-08T21:08:39.654Z,5.30
2023-01-08T21:11:08.579Z,5.30
2023-01-08T21:13:35.808Z,5.30
2023-01-08T21:16:07.771Z,5.30
2023-01-08T21:18:35.053Z,5.40
2023-01-08T21:21:02.658Z,5.30
2023-01-08T21:23:29.625Z,5.30
2023-01-08T21:25:57.419Z,5.30
2023-01-08T21:28:24.901Z,5.30
2023-01-08T21:30:52.064Z,5.30
2023-01-08T21:33:19.696Z,5.30
2023-01-08T21:35:47.092Z,5.30
2023-01-08T21:38:14.138Z,5.30
2023-01-08T21:40:41.101Z,5.30
2023-01-08T21:43:28.017Z,5.30
2023-01-08T21:45:57.017Z,5.30
2023-01-08T21:48:24.063Z,5.30
2023-01-08T21:50:51.028Z,5.40
2023-01-08T21:53:36.155Z,5.40
2023-01-08T21:56:03.791Z,5.40
2023-01-08T21:58:31.009Z,5.50
2023-01-08T22:00:58.360Z,5.50
2023-01-08T22:03:25.392Z,5.50
2023-01-08T22:05:59.265Z,5.50
2023-01-08T22:08:27.979Z,5.60
2023-01-08T22:10:55.201Z,5.60
2023-01-08T22:13:22.219Z,5.60
2023-01-08T22:15:49.330Z,5.60
2023-01-08T22:18:16.354Z,5.60
2023-01-08T22:20:43.350Z,5.60
2023-01-08T22:23:10.395Z,5.60
2023-01-08T22:25:41.031Z,5.60
2023-01-08T22:28:09.101Z,5.50
2023-01-08T22:30:37.398Z,5.60
2023-01-08T22:33:04.421Z,5.60
2023-01-08T22:35:31.442Z,5.70
2023-01-08T22:37:58.529Z,5.70
2023-01-08T22:40:25.558Z,5.70
2023-01-08T22:42:52.553Z,5.80
2023-01-08T22:45:19.630Z,5.80
2023-01-08T22:47:46.609Z,5.80
2023-01-08T22:50:13.596Z,5.80
2023-01-08T22:52:40.573Z,5.80
2023-01-08T22:55:07.710Z,5.80
2023-01-08T22:57:34.755Z,5.80
2023-01-08T23:00:01.747Z,5.80
2023-01-08T23:02:29.002Z,5.80
2023-01-08T23:04:56.832Z,5.80
2023-01-08T23:07:24.003Z,5.80
2023-01-08T23:09:50.987Z,5.80
2023-01-08T23:12:17.980Z,5.80
2023-01-08T23:14:45.218Z,5.80
2023-01-08T23:17:12.240Z,5.70
2023-01-08T23:19:39.673Z,5.70
2023-01-08T23:22:06.654Z,5.70
2023-01-08T23:24:33.751Z,5.70
2023-01-08T23:27:00.988Z,5.70
2023-01-08T23:29:32.020Z,5.60
2023-01-08T23:31:59.112Z,5.60
2023-01-08T23:34:26.111Z,5.60
2023-01-08T23:36:53.096Z,5.60
2023-01-08T23:39:20.147Z,5.60
2023-01-08T23:41:47.333Z,5.50
2023-01-08T23:44:14.676Z,5.50
2023-01-08T23:46:41.667Z,5.50
2023-01-08T23:49:08.898Z,5.50
2023-01-08T23:51:36.074Z,5.50
2023-01-08T23:54:03.133Z,5.50
2023-01-08T23:56:30.216Z,5.50
2023-01-08T23:58:57.270Z,5.50
